createdAt,value
2018-04-22T00:01:13.390Z,18.40
2018-04-22T00:03:39.170Z,21.20
2018-04-22T00:06:04.952Z,13.67
2018-04-22T00:08:30.732Z,19.00
2018-04-22T00:10:56.502Z,15.90
2018-04-22T00:13:22.303Z,16.73
2018-04-22T00:15:48.092Z,17.17
2018-04-22T00:18:13.870Z,13.40
2018-04-22T00:20:39.666Z,13.23
2018-04-22T00:23:05.454Z,13.90
2018-04-22T00:25:31.224Z,16.03
2018-04-22T00:27:57.016Z,13.30
2018-04-22T00:30:22.803Z,18.07
2018-04-22T00:32:48.577Z,14.67
2018-04-22T00:35:14.369Z,14.47
2018-04-22T00:37:40.141Z,23.07
2018-04-22T00:40:05.923Z,16.53
2018-04-22T00:42:31.706Z,15.57
2018-04-22T00:44:57.497Z,16.73
2018-04-22T00:47:23.278Z,17.40
2018-04-22T00:49:49.050Z,22.63
2018-04-22T00:52:14.847Z,20.93
2018-04-22T00:54:40.632Z,18.13
2018-04-22T00:57:06.429Z,19.33
2018-04-22T00:59:32.223Z,19.17
2018-04-22T01:01:58.050Z,21.57
2018-04-22T01:04:23.845Z,20.30
2018-04-22T01:06:49.646Z,20.30
2018-04-22T01:09:15.437Z,23.97
2018-04-22T01:11:41.217Z,19.93
2018-04-22T01:14:07.006Z,17.17
2018-04-22T01:16:32.778Z,20.53
2018-04-22T01:18:58.647Z,17.03
2018-04-22T01:21:24.441Z,18.33
2018-04-22T01:23:50.229Z,22.93
2018-04-22T01:26:16.030Z,19.00
2018-04-22T01:28:41.816Z,17.13
2018-04-22T01:31:07.586Z,20.80
2018-04-22T01:33:33.385Z,18.43
2018-04-22T01:35:59.171Z,17.17
2018-04-22T01:38:24.942Z,17.53
2018-04-22T01:40:50.734Z,18.10
2018-04-22T01:43:16.538Z,17.20
2018-04-22T01:45:42.334Z,22.23
2018-04-22T01:48:08.114Z,15.27
2018-04-22T01:50:33.892Z,24.50
2018-04-22T01:52:59.694Z,19.13
2018-04-22T01:55:25.473Z,15.97
2018-04-22T01:57:51.326Z,17.13
2018-04-22T02:00:17.149Z,18.33
2018-04-22T02:02:42.956Z,15.97
2018-04-22T02:05:08.739Z,17.93
2018-04-22T02:07:34.525Z,15.73
2018-04-22T02:10:00.305Z,16.37
2018-04-22T02:12:26.085Z,17.00
2018-04-22T02:14:51.849Z,16.83
2018-04-22T02:17:17.630Z,14.60
2018-04-22T02:19:43.409Z,17.97
2018-04-22T02:22:09.207Z,16.67
2018-04-22T02:24:34.977Z,18.80
2018-04-22T02:27:00.755Z,14.63
2018-04-22T02:29:26.556Z,12.13
2018-04-22T02:31:52.331Z,19.23
2018-04-22T02:34:18.110Z,15.87
2018-04-22T02:36:43.916Z,17.37
2018-04-22T02:39:09.701Z,13.83
2018-04-22T02:41:35.479Z,15.73
2018-04-22T02:44:01.288Z,19.33
2018-04-22T02:46:27.078Z,18.10
2018-04-22T02:48:52.849Z,16.10
2018-04-22T02:51:18.654Z,18.87
2018-04-22T02:53:44.431Z,17.70
2018-04-22T02:56:10.205Z,14.90
2018-04-22T02:58:36.011Z,14.90
2018-04-22T03:01:01.800Z,17.27
2018-04-22T03:03:27.581Z,11.90
2018-04-22T03:05:53.377Z,19.77
2018-04-22T03:08:19.157Z,18.43
2018-04-22T03:10:44.944Z,16.60
2018-04-22T03:13:10.717Z,20.13
2018-04-22T03:15:36.486Z,15.57
2018-04-22T03:18:02.321Z,21.20
2018-04-22T03:20:28.120Z,15.80
2018-04-22T03:22:53.933Z,16.87
2018-04-22T03:25:19.749Z,14.73
2018-04-22T03:27:45.553Z,18.37
2018-04-22T03:30:11.346Z,16.50
2018-04-22T03:32:37.129Z,17.13
2018-04-22T03:35:02.916Z,16.13
2018-04-22T03:37:28.705Z,15.70
2018-04-22T03:39:54.526Z,15.30
2018-04-22T03:42:20.328Z,17.97
2018-04-22T03:44:46.121Z,27.23
2018-04-22T03:47:11.914Z,21.37
2018-04-22T03:49:37.709Z,21.73
2018-04-22T03:52:03.492Z,18.73
2018-04-22T03:54:29.291Z,15.83
2018-04-22T03:56:55.394Z,14.00
2018-04-22T03:59:21.173Z,20.37
2018-04-22T04:01:47.014Z,16.43
2018-04-22T04:04:12.802Z,22.07
2018-04-22T04:06:38.651Z,20.30
2018-04-22T04:09:04.469Z,18.37
2018-04-22T04:11:30.262Z,22.57
2018-04-22T04:13:56.209Z,19.63
2018-04-22T04:16:21.988Z,15.30
2018-04-22T04:19:01.136Z,25.60
2018-04-22T04:21:39.321Z,18.10
2018-04-22T04:27:24.556Z,18.33
2018-04-22T04:29:50.345Z,20.03
2018-04-22T04:32:16.135Z,20.70
2018-04-22T04:34:41.940Z,19.63
2018-04-22T04:37:07.743Z,18.23
2018-04-22T04:39:33.543Z,19.97
2018-04-22T04:41:59.318Z,18.93
2018-04-22T04:44:25.109Z,17.27
2018-04-22T04:46:51.535Z,15.70
2018-04-22T04:49:17.309Z,16.80
2018-04-22T04:51:43.077Z,17.30
2018-04-22T04:54:09.062Z,18.17
2018-04-22T04:56:34.882Z,23.40
2018-04-22T04:59:00.671Z,23.23
2018-04-22T05:01:26.481Z,20.30
2018-04-22T05:03:52.272Z,19.10
2018-04-22T05:06:18.066Z,18.83
2018-04-22T05:08:43.865Z,21.67
2018-04-22T05:11:16.663Z,19.73
2018-04-22T05:13:42.437Z,22.53
2018-04-22T05:16:08.238Z,22.40
2018-04-22T05:18:34.036Z,23.33
2018-04-22T05:20:59.841Z,16.13
2018-04-22T05:23:25.625Z,20.93
2018-04-22T05:25:51.410Z,20.90
2018-04-22T05:28:17.199Z,19.80
2018-04-22T05:30:42.977Z,28.13
2018-04-22T05:33:08.766Z,19.73
2018-04-22T05:35:34.586Z,20.73
2018-04-22T05:38:00.377Z,20.13
2018-04-22T05:40:26.153Z,19.03
2018-04-22T05:42:51.959Z,16.90
2018-04-22T05:45:17.738Z,24.40
2018-04-22T05:47:43.530Z,27.27
2018-04-22T05:50:09.314Z,20.63
2018-04-22T05:52:35.090Z,22.50
2018-04-22T05:55:00.868Z,17.10
2018-04-22T05:57:26.906Z,24.77
2018-04-22T05:59:52.697Z,24.17
2018-04-22T06:02:18.514Z,34.00
2018-04-22T06:04:44.278Z,22.07
2018-04-22T06:07:10.075Z,19.73
2018-04-22T06:09:35.857Z,22.70
2018-04-22T06:12:01.649Z,18.00
2018-04-22T06:14:27.440Z,17.17
2018-04-22T06:16:53.231Z,14.30
2018-04-22T06:19:19.010Z,22.73
2018-04-22T06:21:44.826Z,18.23
2018-04-22T06:24:10.629Z,15.27
2018-04-22T06:26:36.414Z,19.70
2018-04-22T06:29:02.188Z,22.27
2018-04-22T06:31:28.167Z,22.07
2018-04-22T06:33:54.002Z,19.23
2018-04-22T06:36:19.796Z,19.30
2018-04-22T06:38:45.625Z,118.40
2018-04-22T06:41:18.527Z,93.57
2018-04-22T06:43:44.323Z,111.70
2018-04-22T06:46:10.132Z,111.77
2018-04-22T06:48:35.910Z,22.40
2018-04-22T06:51:01.690Z,23.90
2018-04-22T06:53:27.490Z,26.27
2018-04-22T06:55:53.277Z,11.23
2018-04-22T06:58:19.061Z,21.73
2018-04-22T07:00:44.850Z,17.03
2018-04-22T07:03:10.617Z,20.23
2018-04-22T07:05:36.398Z,20.30
2018-04-22T07:08:02.190Z,9.73
2018-04-22T07:10:27.977Z,12.63
2018-04-22T07:12:53.773Z,14.13
2018-04-22T07:15:19.565Z,9.50
2018-04-22T07:17:45.343Z,20.30
2018-04-22T07:20:11.149Z,13.30
2018-04-22T07:22:37.113Z,9.37
2018-04-22T07:25:02.924Z,9.53
2018-04-22T07:27:28.713Z,9.27
2018-04-22T07:29:54.524Z,14.83
2018-04-22T07:32:20.318Z,10.33
2018-04-22T07:34:46.089Z,10.13
2018-04-22T07:37:11.903Z,11.40
2018-04-22T07:39:37.674Z,9.90
2018-04-22T07:42:07.346Z,8.47
2018-04-22T07:44:33.168Z,13.70
2018-04-22T07:46:58.945Z,17.10
2018-04-22T07:49:24.748Z,15.13
2018-04-22T07:51:50.722Z,15.17
2018-04-22T07:54:16.546Z,20.00
2018-04-22T07:56:42.342Z,13.40
2018-04-22T07:59:08.418Z,19.17
2018-04-22T08:01:34.266Z,11.27
2018-04-22T08:04:00.069Z,18.20
2018-04-22T08:06:26.250Z,7.83
2018-04-22T08:08:53.083Z,11.50
2018-04-22T08:11:18.915Z,11.20
2018-04-22T08:13:44.765Z,9.60
2018-04-22T08:16:12.832Z,9.50
2018-04-22T08:18:39.230Z,4.87
2018-04-22T08:21:05.253Z,12.90
2018-04-22T08:23:31.070Z,4.50
2018-04-22T08:25:56.878Z,7.40
2018-04-22T08:28:22.694Z,7.37
2018-04-22T08:30:48.496Z,5.00
2018-04-22T08:33:14.356Z,4.50
2018-04-22T08:35:40.267Z,8.73
2018-04-22T08:38:06.111Z,10.93
2018-04-22T08:40:31.911Z,5.63
2018-04-22T08:42:57.689Z,10.00
2018-04-22T08:45:23.530Z,4.87
2018-04-22T08:47:49.321Z,7.83
2018-04-22T08:50:15.101Z,3.50
2018-04-22T08:52:40.898Z,3.40
2018-04-22T08:55:06.718Z,2.70
2018-04-22T08:57:32.493Z,5.23
2018-04-22T08:59:58.323Z,4.90
2018-04-22T09:02:24.102Z,5.03
2018-04-22T09:04:49.904Z,6.10
2018-04-22T09:07:16.000Z,6.60
2018-04-22T09:09:41.785Z,18.93
2018-04-22T09:12:07.585Z,8.60
2018-04-22T09:14:33.394Z,9.33
2018-04-22T09:16:59.177Z,10.57
2018-04-22T09:19:25.249Z,12.70
2018-04-22T09:21:51.025Z,4.83
2018-04-22T09:24:16.794Z,18.43
2018-04-22T09:26:42.576Z,8.47
2018-04-22T09:29:08.378Z,6.83
2018-04-22T09:31:34.173Z,20.13
2018-04-22T09:33:59.970Z,5.63
2018-04-22T09:36:25.767Z,8.60
2018-04-22T09:38:51.737Z,3.97
2018-04-22T09:41:17.541Z,4.87
2018-04-22T09:43:43.317Z,4.23
2018-04-22T09:46:09.141Z,30.10
2018-04-22T09:48:34.954Z,6.83
2018-04-22T09:51:00.744Z,8.00
2018-04-22T09:53:26.810Z,3.83
2018-04-22T09:55:52.590Z,10.23
2018-04-22T09:58:18.394Z,11.60
2018-04-22T10:00:46.113Z,10.20
2018-04-22T10:03:11.936Z,9.13
2018-04-22T10:05:43.940Z,11.40
2018-04-22T10:08:09.742Z,22.60
2018-04-22T10:10:35.525Z,9.13
2018-04-22T10:13:01.318Z,7.83
2018-04-22T10:15:27.126Z,6.07
2018-04-22T10:17:52.927Z,5.03
2018-04-22T10:20:18.722Z,6.20
2018-04-22T10:22:44.522Z,8.20
2018-04-22T10:25:10.304Z,2.47
2018-04-22T10:27:36.081Z,5.23
2018-04-22T10:30:01.881Z,3.07
2018-04-22T10:32:27.665Z,5.33
2018-04-22T10:34:53.471Z,5.30
2018-04-22T10:37:19.283Z,6.40
2018-04-22T10:39:45.318Z,5.00
2018-04-22T10:42:11.167Z,7.30
2018-04-22T10:44:37.369Z,4.30
2018-04-22T10:47:03.169Z,7.40
2018-04-22T10:49:28.983Z,6.63
2018-04-22T10:51:54.756Z,6.70
2018-04-22T10:54:20.537Z,33.90
2018-04-22T10:56:46.366Z,13.90
2018-04-22T10:59:12.147Z,4.60
2018-04-22T11:01:37.922Z,5.80
2018-04-22T11:04:03.731Z,14.43
2018-04-22T11:06:29.519Z,8.97
2018-04-22T11:08:55.320Z,7.40
2018-04-22T11:11:21.205Z,6.70
2018-04-22T11:13:46.988Z,4.33
2018-04-22T11:16:12.763Z,5.13
2018-04-22T11:18:38.550Z,3.40
2018-04-22T11:21:04.374Z,6.87
2018-04-22T11:23:30.177Z,9.80
2018-04-22T11:25:55.989Z,10.60
2018-04-22T11:28:21.771Z,2.40
2018-04-22T11:30:47.565Z,3.23
2018-04-22T11:33:13.370Z,10.97
2018-04-22T11:35:39.153Z,8.30
2018-04-22T11:38:04.946Z,9.43
2018-04-22T11:40:30.760Z,11.30
2018-04-22T11:42:56.545Z,3.93
2018-04-22T11:45:22.326Z,5.47
2018-04-22T11:47:48.221Z,4.70
2018-04-22T11:50:14.013Z,7.70
2018-04-22T11:52:39.822Z,4.40
2018-04-22T11:55:05.628Z,3.10
2018-04-22T11:57:31.413Z,14.40
2018-04-22T11:59:57.237Z,11.57
2018-04-22T12:02:23.036Z,14.60
2018-04-22T12:04:48.844Z,5.83
2018-04-22T12:07:14.689Z,8.00
2018-04-22T12:09:40.477Z,7.93
2018-04-22T12:12:06.254Z,12.10
2018-04-22T12:14:32.412Z,15.20
2018-04-22T12:16:58.218Z,9.70
2018-04-22T12:19:24.009Z,3.27
2018-04-22T12:21:49.790Z,8.00
2018-04-22T12:24:15.585Z,20.27
2018-04-22T12:26:41.397Z,6.10
2018-04-22T12:29:07.192Z,2.87
2018-04-22T12:31:32.990Z,5.90
2018-04-22T12:33:58.796Z,15.30
2018-04-22T12:36:24.581Z,25.77
2018-04-22T12:38:50.361Z,8.33
2018-04-22T12:41:16.195Z,16.57
2018-04-22T12:43:42.007Z,3.00
2018-04-22T12:46:07.785Z,3.43
2018-04-22T12:48:33.578Z,8.77
2018-04-22T12:50:59.389Z,7.40
2018-04-22T12:53:25.187Z,5.53
2018-04-22T12:55:50.962Z,12.50
2018-04-22T12:58:16.746Z,2.80
2018-04-22T13:00:42.553Z,7.47
2018-04-22T13:03:08.374Z,19.50
2018-04-22T13:05:34.190Z,14.57
2018-04-22T13:08:00.111Z,11.70
2018-04-22T13:10:25.903Z,6.27
2018-04-22T13:12:51.698Z,12.13
2018-04-22T13:15:17.495Z,5.37
2018-04-22T13:17:43.281Z,7.30
2018-04-22T13:20:09.085Z,6.97
2018-04-22T13:22:34.899Z,6.40
2018-04-22T13:25:00.685Z,13.57
2018-04-22T13:27:26.465Z,7.63
2018-04-22T13:29:52.286Z,2.47
2018-04-22T13:32:18.077Z,4.27
2018-04-22T13:34:43.930Z,3.67
2018-04-22T13:37:09.799Z,5.93
2018-04-22T13:39:35.559Z,1.83
2018-04-22T13:42:01.353Z,2.83
2018-04-22T13:44:27.377Z,2.20
2018-04-22T13:46:53.221Z,2.53
2018-04-22T13:49:19.014Z,3.53
2018-04-22T13:51:44.823Z,3.23
2018-04-22T13:54:10.607Z,4.00
2018-04-22T13:56:36.399Z,4.93
2018-04-22T13:59:02.230Z,24.83
2018-04-22T14:01:28.031Z,22.30
2018-04-22T14:03:53.886Z,5.33
2018-04-22T14:06:19.690Z,173.53
2018-04-22T14:08:45.478Z,47.63
2018-04-22T14:11:11.261Z,15.63
2018-04-22T14:13:37.058Z,13.97
2018-04-22T14:16:02.865Z,40.73
2018-04-22T14:18:29.625Z,17.57
2018-04-22T14:20:55.512Z,36.07
2018-04-22T14:23:21.298Z,54.97
2018-04-22T14:25:47.082Z,15.50
2018-04-22T14:28:12.890Z,3.83
2018-04-22T14:30:38.698Z,3.20
2018-04-22T14:33:04.483Z,22.70
2018-04-22T14:35:30.274Z,13.23
2018-04-22T14:37:56.070Z,204.67
2018-04-22T14:40:21.929Z,125.60
2018-04-22T14:42:47.714Z,99.50
2018-04-22T14:45:25.921Z,15.53
2018-04-22T14:47:51.705Z,7.53
2018-04-22T14:50:17.774Z,36.20
2018-04-22T14:52:43.572Z,29.83
2018-04-22T14:55:09.367Z,49.43
2018-04-22T14:57:35.154Z,40.07
2018-04-22T15:00:00.987Z,16.67
2018-04-22T15:02:26.797Z,5.07
2018-04-22T15:04:52.585Z,28.10
2018-04-22T15:07:18.706Z,4.60
2018-04-22T15:09:44.524Z,48.63
2018-04-22T15:12:10.335Z,6.13
2018-04-22T15:14:36.267Z,35.27
2018-04-22T15:17:02.096Z,8.90
2018-04-22T15:19:27.918Z,49.07
2018-04-22T15:21:53.685Z,6.60
2018-04-22T15:24:19.498Z,4.30
2018-04-22T15:26:45.286Z,224.13
2018-04-22T15:29:11.285Z,29.40
2018-04-22T15:31:37.073Z,8.17
2018-04-22T15:34:02.853Z,5.23
2018-04-22T15:36:29.067Z,4.50
2018-04-22T15:38:54.884Z,3.40
2018-04-22T15:41:21.589Z,3.80
2018-04-22T15:43:47.906Z,2.97
2018-04-22T15:46:13.737Z,154.13
2018-04-22T15:48:39.729Z,72.83
2018-04-22T15:51:06.360Z,96.20
2018-04-22T15:53:33.102Z,11.43
2018-04-22T15:55:59.574Z,27.97
2018-04-22T15:58:25.437Z,201.23
2018-04-22T16:00:51.237Z,48.07
2018-04-22T16:03:17.062Z,30.97
2018-04-22T16:05:42.873Z,37.60
2018-04-22T16:08:08.711Z,14.40
2018-04-22T16:10:34.508Z,9.80
2018-04-22T16:13:00.977Z,6.50
2018-04-22T16:15:26.795Z,3.43
2018-04-22T16:17:54.953Z,11.53
2018-04-22T16:20:22.819Z,10.63
2018-04-22T16:22:49.231Z,11.43
2018-04-22T16:25:15.021Z,13.80
2018-04-22T16:27:41.892Z,12.90
2018-04-22T16:30:07.726Z,9.60
2018-04-22T16:32:33.583Z,4.03
2018-04-22T16:34:59.371Z,6.50
2018-04-22T16:37:25.198Z,5.33
2018-04-22T16:39:50.977Z,14.73
2018-04-22T16:42:16.778Z,120.10
2018-04-22T16:44:42.571Z,41.83
2018-04-22T16:47:08.373Z,8.47
2018-04-22T16:49:34.197Z,25.90
2018-04-22T16:51:59.982Z,11.73
2018-04-22T16:54:25.812Z,35.23
2018-04-22T16:56:52.119Z,8.73
2018-04-22T16:59:18.682Z,4.90
2018-04-22T17:01:44.536Z,31.33
2018-04-22T17:04:10.501Z,8.07
2018-04-22T17:06:36.294Z,13.80
2018-04-22T17:09:03.919Z,6.00
2018-04-22T17:11:29.730Z,6.67
2018-04-22T17:13:55.542Z,5.70
2018-04-22T17:16:21.388Z,13.27
2018-04-22T17:18:47.173Z,26.97
2018-04-22T17:21:12.994Z,13.30
2018-04-22T17:23:38.890Z,9.57
2018-04-22T17:26:04.720Z,8.10
2018-04-22T17:28:37.548Z,7.67
2018-04-22T17:31:04.375Z,8.20
2018-04-22T17:33:31.121Z,18.90
2018-04-22T17:35:56.963Z,8.33
2018-04-22T17:38:22.769Z,7.67
2018-04-22T17:40:48.587Z,8.93
2018-04-22T17:43:14.396Z,9.60
2018-04-22T17:45:40.233Z,4.47
2018-04-22T17:48:06.067Z,4.87
2018-04-22T17:50:31.882Z,13.17
2018-04-22T17:52:57.967Z,5.60
2018-04-22T17:55:23.759Z,17.50
2018-04-22T17:57:49.598Z,30.03
2018-04-22T18:00:15.425Z,20.67
2018-04-22T18:02:41.226Z,9.30
2018-04-22T18:05:07.048Z,10.97
2018-04-22T18:07:32.859Z,14.77
2018-04-22T18:09:58.654Z,11.80
2018-04-22T18:12:24.480Z,33.83
2018-04-22T18:14:50.301Z,55.17
2018-04-22T18:17:16.318Z,42.70
2018-04-22T18:19:42.113Z,38.47
2018-04-22T18:22:08.023Z,28.57
2018-04-22T18:24:33.828Z,81.00
2018-04-22T18:26:59.625Z,149.20
2018-04-22T18:29:25.443Z,108.97
2018-04-22T18:31:52.156Z,54.17
2018-04-22T18:34:18.019Z,60.27
2018-04-22T18:36:43.841Z,25.40
2018-04-22T18:39:09.656Z,44.57
2018-04-22T18:41:35.826Z,27.70
2018-04-22T18:44:08.603Z,66.70
2018-04-22T18:46:34.394Z,53.73
2018-04-22T18:49:00.207Z,48.93
2018-04-22T18:51:26.016Z,61.07
2018-04-22T18:53:51.807Z,72.17
2018-04-22T18:56:17.763Z,102.63
2018-04-22T18:58:43.591Z,142.90
2018-04-22T19:01:09.568Z,239.07
2018-04-22T19:03:35.386Z,150.67
2018-04-22T19:06:01.625Z,137.00
2018-04-22T19:08:27.563Z,66.63
2018-04-22T19:10:53.378Z,145.40
2018-04-22T19:13:19.213Z,96.93
2018-04-22T19:15:44.998Z,118.07
2018-04-22T19:18:11.019Z,154.77
2018-04-22T19:20:36.863Z,159.00
2018-04-22T19:23:02.748Z,34.77
2018-04-22T19:25:28.494Z,179.90
2018-04-22T19:27:54.287Z,94.70
2018-04-22T19:30:20.115Z,148.67
2018-04-22T19:32:46.051Z,125.37
2018-04-22T19:35:11.844Z,72.70
2018-04-22T19:37:37.958Z,155.37
2018-04-22T19:40:03.771Z,148.93
2018-04-22T19:42:29.685Z,322.20
2018-04-22T19:44:55.481Z,74.73
2018-04-22T19:47:21.276Z,19.37
2018-04-22T19:49:47.551Z,53.30
2018-04-22T19:52:13.337Z,40.20
2018-04-22T19:54:39.149Z,36.17
2018-04-22T19:57:05.062Z,64.37
2018-04-22T19:59:30.868Z,53.77
2018-04-22T20:01:56.676Z,95.93
2018-04-22T20:04:22.576Z,54.67
2018-04-22T20:06:48.391Z,38.37
2018-04-22T20:09:14.220Z,17.40
2018-04-22T20:11:40.002Z,67.50
2018-04-22T20:14:05.799Z,46.50
2018-04-22T20:16:31.606Z,16.13
2018-04-22T20:18:57.415Z,23.90
2018-04-22T20:21:23.211Z,56.10
2018-04-22T20:23:49.057Z,29.40
2018-04-22T20:26:14.900Z,52.60
2018-04-22T20:28:40.695Z,143.37
2018-04-22T20:31:06.497Z,182.93
2018-04-22T20:33:32.293Z,180.80
2018-04-22T20:35:58.110Z,185.27
2018-04-22T20:38:24.139Z,153.83
2018-04-22T20:40:49.993Z,188.47
2018-04-22T20:43:15.824Z,289.53
2018-04-22T20:45:41.607Z,150.33
2018-04-22T20:48:07.502Z,79.47
2018-04-22T20:50:33.285Z,45.87
2018-04-22T20:52:59.064Z,96.10
2018-04-22T20:55:25.121Z,93.20
2018-04-22T20:57:52.490Z,79.20
2018-04-22T21:00:18.274Z,78.10
2018-04-22T21:02:44.248Z,17.87
2018-04-22T21:05:10.175Z,139.87
2018-04-22T21:07:36.002Z,48.90
2018-04-22T21:10:01.816Z,11.47
2018-04-22T21:12:27.594Z,9.73
2018-04-22T21:14:53.508Z,11.40
2018-04-22T21:17:19.325Z,12.80
2018-04-22T21:19:45.103Z,13.33
2018-04-22T21:22:10.890Z,15.03
2018-04-22T21:24:36.693Z,13.63
2018-04-22T21:27:02.522Z,18.10
2018-04-22T21:29:28.300Z,10.63
2018-04-22T21:31:54.110Z,13.20
2018-04-22T21:34:19.936Z,10.63
2018-04-22T21:36:45.725Z,12.53
2018-04-22T21:39:11.550Z,9.13
2018-04-22T21:41:37.342Z,11.60
2018-04-22T21:44:03.135Z,10.73
2018-04-22T21:46:29.271Z,9.70
2018-04-22T21:48:55.080Z,9.93
2018-04-22T21:51:21.147Z,9.17
2018-04-22T21:53:46.947Z,7.10
2018-04-22T21:56:12.738Z,12.70
2018-04-22T21:58:38.789Z,7.77
2018-04-22T22:01:04.619Z,15.30
2018-04-22T22:03:30.423Z,48.43
2018-04-22T22:05:56.244Z,14.83
2018-04-22T22:08:22.026Z,10.67
2018-04-22T22:10:47.819Z,16.37
2018-04-22T22:13:13.789Z,10.33
2018-04-22T22:15:39.585Z,14.23
2018-04-22T22:18:05.407Z,43.37
2018-04-22T22:20:31.204Z,13.03
2018-04-22T22:22:56.996Z,9.60
2018-04-22T22:25:22.789Z,9.60
2018-04-22T22:27:48.592Z,41.87
2018-04-22T22:30:14.374Z,33.57
2018-04-22T22:32:40.405Z,43.77
2018-04-22T22:35:06.184Z,99.23
2018-04-22T22:37:31.990Z,82.43
2018-04-22T22:39:57.770Z,36.10
2018-04-22T22:42:23.727Z,49.90
2018-04-22T22:44:49.725Z,88.20
2018-04-22T22:47:15.522Z,83.60
2018-04-22T22:49:41.314Z,15.27
2018-04-22T22:52:07.114Z,26.27
2018-04-22T22:54:32.905Z,51.17
2018-04-22T22:56:58.726Z,29.63
2018-04-22T22:59:24.521Z,23.47
2018-04-22T23:01:50.321Z,28.40
2018-04-22T23:04:16.305Z,27.47
2018-04-22T23:06:42.101Z,13.27
2018-04-22T23:09:07.931Z,28.00
2018-04-22T23:11:33.710Z,15.63
2018-04-22T23:13:59.501Z,13.37
2018-04-22T23:16:25.308Z,20.00
2018-04-22T23:18:51.118Z,10.53
2018-04-22T23:21:16.917Z,11.07
2018-04-22T23:23:42.733Z,12.77
2018-04-22T23:26:08.669Z,13.00
2018-04-22T23:28:34.437Z,21.77
2018-04-22T23:31:00.245Z,23.60
2018-04-22T23:33:26.038Z,16.47
2018-04-22T23:35:51.814Z,42.03
2018-04-22T23:38:17.632Z,35.43
2018-04-22T23:40:43.425Z,26.33
2018-04-22T23:43:09.231Z,22.03
2018-04-22T23:45:35.028Z,39.60
2018-04-22T23:48:00.816Z,22.80
2018-04-22T23:50:26.620Z,19.37
2018-04-22T23:52:52.402Z,14.13
2018-04-22T23:55:18.337Z,12.60
2018-04-22T23:57:44.150Z,45.30
